Time;durP1;ratioP1;P1;durP2;ratioP2;P2;SDS_P1;SDS_P2;PMS_P1;PMS_P2;Temp;Humidity;BMP_temperature;BMP_pressure;BME280_temperature;BME280_humidity;BME280_pressure;Samples;Min_cycle;Max_cycle;Signal;HPM_P1;HPM_P2
2021/06/16 00:00:31;;;;;;;12.20;7.13;;;;;;;19.25;74.23;100326.16;2066337;28;20128;-58
2021/06/16 00:01:31;;;;;;;11.47;7.03;;;;;;;19.26;74.13;100327.88;2065140;28;20030;-57
2021/06/16 00:02:31;;;;;;;11.23;7.50;;;;;;;19.24;74.42;100333.25;2069911;28;20021;-58
2021/06/16 00:03:31;;;;;;;12.57;7.30;;;;;;;19.21;74.38;100333.44;2067919;28;20055;-57
2021/06/16 00:04:32;;;;;;;13.93;7.33;;;;;;;19.21;74.76;100330.81;2064814;28;20030;-57
2021/06/16 00:05:32;;;;;;;9.00;7.13;;;;;;;19.20;74.61;100328.28;2067125;28;20033;-57
2021/06/16 00:06:33;;;;;;;10.23;7.30;;;;;;;19.16;75.07;100324.13;2067941;28;20050;-57
2021/06/16 00:07:34;;;;;;;10.90;7.85;;;;;;;19.17;74.77;100328.47;2067293;28;20742;-59
2021/06/16 00:08:34;;;;;;;13.60;7.97;;;;;;;19.15;75.02;100327.72;2067846;28;20366;-58
2021/06/16 00:09:35;;;;;;;11.57;7.43;;;;;;;19.09;74.84;100323.66;2066078;28;20057;-59
2021/06/16 00:10:36;;;;;;;10.57;7.30;;;;;;;19.11;75.26;100327.06;2068209;28;20495;-58
2021/06/16 00:11:36;;;;;;;10.95;7.25;;;;;;;19.09;74.73;100326.31;2067670;28;20034;-58
2021/06/16 00:12:38;;;;;;;11.98;6.97;;;;;;;19.08;74.83;100321.97;2061956;28;20061;-58
2021/06/16 00:13:38;;;;;;;;;;;;;;;19.05;75.35;100330.94;2062248;28;20108;-58
2021/06/16 00:14:40;;;;;;;10.18;7.25;;;;;;;19.02;75.16;100325.84;2065280;28;19909;-58
2021/06/16 00:15:43;;;;;;;12.00;7.68;;;;;;;18.99;75.35;100328.69;2067042;28;20032;-58
2021/06/16 00:16:44;;;;;;;12.73;7.60;;;;;;;19.01;75.49;100331.22;2063999;28;20117;-58
2021/06/16 00:17:44;;;;;;;;;;;;;;;18.96;76.05;100327.09;2067099;28;20489;-58
2021/06/16 00:18:45;;;;;;;9.85;7.45;;;;;;;18.94;76.38;100334.28;2068189;28;19925;-58
2021/06/16 00:19:45;;;;;;;10.70;7.70;;;;;;;18.92;76.49;100330.84;2065609;28;20026;-58
2021/06/16 00:20:46;;;;;;;10.87;7.73;;;;;;;18.91;76.36;100328.28;2067765;28;20903;-58
2021/06/16 00:21:46;;;;;;;12.70;7.77;;;;;;;18.89;76.62;100327.56;2066013;28;20053;-57
2021/06/16 00:22:47;;;;;;;11.30;7.80;;;;;;;18.89;76.76;100325.75;2065388;28;20033;-57
2021/06/16 00:23:48;;;;;;;9.83;7.33;;;;;;;18.88;77.04;100325.84;2075377;28;20026;-57
2021/06/16 00:24:48;;;;;;;;;;;;;;;18.85;77.28;100329.53;2074474;28;20025;-58
2021/06/16 00:25:49;;;;;;;12.23;7.95;;;;;;;18.85;77.40;100324.28;2064537;28;20377;-58
2021/06/16 00:26:49;;;;;;;10.50;8.07;;;;;;;18.83;77.50;100324.34;2068163;28;20029;-58
2021/06/16 00:27:49;;;;;;;11.90;7.60;;;;;;;18.86;77.38;100328.56;2066788;28;20049;-57
2021/06/16 00:28:50;;;;;;;11.83;7.47;;;;;;;18.86;77.13;100325.94;2066608;28;20049;-57
2021/06/16 00:29:50;;;;;;;13.63;8.07;;;;;;;18.86;77.63;100328.56;2066179;28;20145;-57
2021/06/16 00:30:50;;;;;;;13.03;8.33;;;;;;;18.87;77.70;100327.63;2067243;28;20053;-57
2021/06/16 00:31:50;;;;;;;11.60;8.33;;;;;;;18.84;77.80;100327.84;2069575;28;20032;-57
2021/06/16 00:32:53;;;;;;;16.30;8.17;;;;;;;18.85;77.63;100326.91;2066786;28;20375;-57
2021/06/16 00:33:54;;;;;;;12.18;8.27;;;;;;;18.84;78.49;100327.84;2064591;28;20413;-58
2021/06/16 00:34:54;;;;;;;8.93;7.93;;;;;;;18.81;78.49;100328.88;2065523;28;20025;-57
2021/06/16 00:35:55;;;;;;;12.43;8.50;;;;;;;18.80;78.31;100323.69;2068034;28;20105;-58
2021/06/16 00:36:55;;;;;;;10.83;8.27;;;;;;;18.78;78.77;100333.50;2064416;28;20048;-58
2021/06/16 00:37:57;;;;;;;9.90;8.53;;;;;;;18.79;78.10;100329.91;2066492;28;20025;-57
2021/06/16 00:38:58;;;;;;;12.32;8.38;;;;;;;18.83;78.19;100326.97;2066489;28;20029;-58
2021/06/16 00:39:59;;;;;;;15.00;8.52;;;;;;;18.81;78.61;100328.88;2063525;28;20041;-58
2021/06/16 00:40:59;;;;;;;14.65;8.00;;;;;;;18.81;78.36;100323.59;2064867;28;20033;-58
2021/06/16 00:42:00;;;;;;;12.30;8.40;;;;;;;18.78;79.20;100333.50;2069075;28;20130;-57
2021/06/16 00:43:01;;;;;;;17.13;8.90;;;;;;;18.78;78.68;100328.22;2071266;28;20028;-58
2021/06/16 00:44:01;;;;;;;11.97;7.97;;;;;;;18.80;78.78;100329.84;2065260;28;20030;-58
2021/06/16 00:45:03;;;;;;;12.43;8.27;;;;;;;18.84;78.84;100327.84;2063985;28;20281;-57
2021/06/16 00:46:03;;;;;;;10.88;8.43;;;;;;;18.86;78.54;100336.50;2063891;28;20026;-57
2021/06/16 00:47:04;;;;;;;14.60;8.63;;;;;;;18.85;78.63;100332.19;2064668;28;20117;-57
2021/06/16 00:48:04;;;;;;;13.10;8.33;;;;;;;18.81;78.82;100333.31;2065102;28;20161;-58
2021/06/16 00:49:05;;;;;;;12.75;8.38;;;;;;;18.72;79.42;100333.88;2063180;28;20269;-61
2021/06/16 00:50:08;;;;;;;14.57;8.90;;;;;;;18.76;79.22;100332.75;2066572;28;20033;-62
2021/06/16 00:51:08;;;;;;;13.32;8.75;;;;;;;18.66;80.00;100330.66;2068217;28;20026;-62
2021/06/16 00:52:09;;;;;;;10.73;8.17;;;;;;;18.68;79.58;100335.88;2065658;28;20072;-63
2021/06/16 00:53:09;;;;;;;13.13;9.00;;;;;;;18.76;79.77;100338.88;2067173;28;20397;-62
2021/06/16 00:54:10;;;;;;;14.38;9.02;;;;;;;18.77;79.41;100337.94;2068585;28;20101;-62
2021/06/16 00:55:11;;;;;;;10.57;8.70;;;;;;;18.85;79.61;100336.59;2069843;28;20041;-62
2021/06/16 00:56:11;;;;;;;14.10;8.95;;;;;;;18.87;79.34;100338.19;2069072;28;20105;-63
2021/06/16 00:57:11;;;;;;;11.55;8.85;;;;;;;18.88;79.30;100334.63;2063962;28;20060;-63
2021/06/16 00:58:12;;;;;;;9.77;8.07;;;;;;;18.83;79.41;100336.72;2067392;28;20049;-62
2021/06/16 00:59:12;;;;;;;13.27;8.50;;;;;;;18.87;79.07;100340.84;2068064;28;20666;-62
2021/06/16 01:00:18;;;;;;;9.77;8.60;;;;;;;18.90;79.58;100332.72;2066128;28;20490;-61
2021/06/16 01:01:24;;;;;;;12.57;8.88;;;;;;;18.91;79.41;100334.44;2062809;28;20049;-62
2021/06/16 01:02:25;;;;;;;12.90;8.85;;;;;;;18.88;79.64;100331.97;2064965;28;20497;-62
2021/06/16 01:03:51;;;;;;;11.27;9.80;;;;;;;18.89;79.81;100335.47;2063833;28;20041;-61
2021/06/16 01:04:53;;;;;;;12.35;9.10;;;;;;;18.88;79.55;100334.63;2065011;28;20030;-61
2021/06/16 01:06:04;;;;;;;13.07;8.98;;;;;;;18.90;79.69;100332.72;2064409;28;20018;-61
2021/06/16 01:07:11;;;;;;;12.63;9.30;;;;;;;18.86;79.60;100325.94;2064028;28;20402;-61
2021/06/16 01:08:18;;;;;;;11.63;9.20;;;;;;;18.83;79.71;100326.97;2063175;28;20045;-61
2021/06/16 01:09:27;;;;;;;12.20;9.20;;;;;;;18.80;80.04;100329.84;2064866;28;20102;-61
2021/06/16 01:10:33;;;;;;;10.48;8.27;;;;;;;18.80;79.96;100331.63;2069319;28;20118;-61
2021/06/16 01:11:41;;;;;;;12.43;8.50;;;;;;;18.80;79.81;100326.34;2068937;28;20845;-61
2021/06/16 01:12:46;;;;;;;11.43;8.90;;;;;;;18.81;80.10;100333.31;2066370;28;20038;-62
2021/06/16 01:14:04;;;;;;;11.65;9.15;;;;;;;18.83;80.10;100326.16;2065798;28;20033;-61
2021/06/16 01:15:16;;;;;;;13.98;9.10;;;;;;;18.80;80.30;100329.84;2063375;28;20104;-61
2021/06/16 01:16:23;;;;;;;12.38;8.82;;;;;;;18.81;80.20;100326.22;2066085;28;20021;-61
2021/06/16 01:17:52;;;;;;;15.85;9.38;;;;;;;18.81;80.11;100328.03;2064946;28;20038;-61
2021/06/16 01:18:55;;;;;;;12.10;9.18;;;;;;;18.80;80.19;100326.34;2066281;28;20208;-62
2021/06/16 01:19:59;;;;;;;9.82;8.82;;;;;;;18.82;80.17;100329.72;2065448;28;20057;-66
2021/06/16 01:21:01;;;;;;;12.18;9.20;;;;;;;18.79;79.98;100330.78;2065476;28;20480;-67
2021/06/16 01:22:10;;;;;;;9.68;8.68;;;;;;;18.80;79.77;100328.97;2063675;28;20030;-67
2021/06/16 01:23:35;;;;;;;18.55;15.80;;;;;;;18.74;80.37;100322.28;2067918;28;20418;-66
2021/06/16 01:24:41;;;;;;;31.85;21.02;;;;;;;18.77;80.68;100331.78;2069197;28;20041;-68
2021/06/16 01:25:46;;;;;;;21.27;16.50;;;;;;;18.75;80.63;100333.72;2068105;28;20030;-66
2021/06/16 01:26:53;;;;;;;16.23;10.15;;;;;;;18.74;80.78;100329.38;2067145;28;20030;-67
2021/06/16 01:27:54;;;;;;;12.45;9.75;;;;;;;18.73;80.86;100319.75;2070781;28;20025;-67
2021/06/16 01:29:01;;;;;;;13.45;9.75;;;;;;;18.73;80.89;100330.31;2077808;28;20026;-67
2021/06/16 01:30:03;;;;;;;12.95;9.25;;;;;;;18.66;80.95;100325.38;2071730;28;20387;-67
2021/06/16 01:31:05;;;;;;;12.48;9.75;;;;;;;18.67;81.07;100327.09;2069855;28;20536;-67
2021/06/16 01:32:08;;;;;;;10.63;8.77;;;;;;;18.66;81.56;100335.13;2065844;28;20036;-67
2021/06/16 01:33:11;;;;;;;17.25;9.55;;;;;;;18.66;81.19;100320.13;2070720;28;20030;-67
2021/06/16 01:34:13;;;;;;;11.70;9.18;;;;;;;18.67;81.37;100332.38;2070872;28;20477;-67
2021/06/16 01:35:14;;;;;;;11.63;9.68;;;;;;;18.65;81.38;100326.38;2071278;28;20133;-67
2021/06/16 01:36:15;;;;;;;12.17;9.33;;;;;;;18.64;81.48;100321.16;2076825;28;20140;-67
2021/06/16 01:37:16;;;;;;;12.40;10.15;;;;;;;18.65;81.72;100328.13;2079117;28;20064;-67
2021/06/16 01:38:19;;;;;;;12.70;9.75;;;;;;;18.62;81.84;100328.31;2077018;28;20021;-67
2021/06/16 01:39:22;;;;;;;12.45;9.65;;;;;;;18.61;81.98;100327.47;2074121;28;20033;-67
2021/06/16 01:40:24;;;;;;;16.27;9.65;;;;;;;18.65;81.94;100328.13;2064860;28;20105;-67
2021/06/16 01:41:25;;;;;;;13.60;9.00;;;;;;;18.63;82.25;100324.75;2075656;28;20039;-67
2021/06/16 01:42:27;;;;;;;12.68;9.55;;;;;;;18.63;81.99;100328.25;2076123;28;20592;-67
2021/06/16 01:43:28;;;;;;;11.32;9.68;;;;;;;18.60;81.71;100325.78;2066057;28;20889;-67
2021/06/16 01:44:30;;;;;;;13.00;9.45;;;;;;;18.60;81.90;100331.06;2063827;28;20034;-67
2021/06/16 01:45:34;;;;;;;10.95;9.70;;;;;;;18.54;82.53;100326.19;2067046;28;20129;-67
2021/06/16 01:46:34;;;;;;;15.73;9.68;;;;;;;18.55;82.27;100327.00;2064625;28;20026;-67
2021/06/16 01:47:35;;;;;;;11.83;9.27;;;;;;;18.51;82.53;100326.34;2069199;28;20030;-67
2021/06/16 01:48:39;;;;;;;13.48;9.48;;;;;;;18.54;82.46;100325.31;2067761;28;20099;-67
2021/06/16 01:49:41;;;;;;;12.57;9.45;;;;;;;18.54;82.75;100328.81;2070356;28;20065;-67
2021/06/16 01:50:43;;;;;;;15.48;10.15;;;;;;;18.52;83.10;100328.88;2069833;28;20045;-67
2021/06/16 01:51:43;;;;;;;12.02;9.15;;;;;;;18.50;83.14;100317.59;2066690;28;20033;-67
2021/06/16 01:52:47;;;;;;;12.60;9.52;;;;;;;18.49;83.29;100323.81;2070632;28;20340;-67
2021/06/16 01:53:49;;;;;;;11.18;9.38;;;;;;;18.47;83.27;100324.84;2079429;28;20091;-67
2021/06/16 01:54:51;;;;;;;12.70;9.88;;;;;;;18.47;83.32;100325.69;2078464;28;20142;-67
2021/06/16 01:55:52;;;;;;;14.65;9.93;;;;;;;18.48;83.39;100321.25;2071972;28;20101;-67
2021/06/16 01:56:54;;;;;;;12.02;9.93;;;;;;;18.47;83.32;100320.41;2070503;28;20030;-67
2021/06/16 01:57:57;;;;;;;10.80;9.43;;;;;;;18.44;83.34;100317.13;2071066;28;20018;-67
2021/06/16 01:59:00;;;;;;;12.07;9.43;;;;;;;18.41;83.57;100319.94;2071096;28;20041;-67
2021/06/16 02:00:03;;;;;;;13.27;9.55;;;;;;;18.44;83.38;100319.75;2072233;28;20478;-67
2021/06/16 02:01:04;;;;;;;12.75;9.65;;;;;;;18.44;83.21;100320.59;2071442;28;20030;-67
2021/06/16 02:02:04;;;;;;;13.55;9.75;;;;;;;18.41;83.63;100322.59;2071853;28;20022;-67
2021/06/16 02:03:06;;;;;;;12.40;10.10;;;;;;;18.38;83.70;100321.00;2071936;28;20032;-67
2021/06/16 02:04:06;;;;;;;12.88;9.07;;;;;;;18.38;83.29;100320.13;2071492;28;20398;-67
2021/06/16 02:05:08;;;;;;;11.80;9.43;;;;;;;18.38;83.96;100320.13;2079498;28;20132;-67
2021/06/16 02:06:08;;;;;;;13.68;9.32;;;;;;;18.36;83.60;100320.22;2079037;28;20028;-67
2021/06/16 02:07:15;;;;;;;12.93;9.70;;;;;;;18.39;83.49;100313.91;2070942;28;20064;-67
2021/06/16 02:08:20;;;;;;;11.52;9.38;;;;;;;18.35;83.99;100314.13;2077977;28;20029;-67
2021/06/16 02:09:24;;;;;;;14.30;9.15;;;;;;;18.37;83.74;100316.66;2078272;28;20076;-67
2021/06/16 02:10:29;;;;;;;13.48;9.60;;;;;;;18.35;83.49;100316.75;2066683;28;20076;-67
2021/06/16 02:11:31;;;;;;;11.90;9.75;;;;;;;18.35;83.77;100321.16;2071049;28;20041;-67
2021/06/16 02:12:33;;;;;;;12.93;9.82;;;;;;;18.35;83.52;100316.75;2070501;28;20030;-67
2021/06/16 02:13:58;;;;;;;14.77;9.73;;;;;;;18.30;83.92;100318.81;2070824;28;20121;-67
2021/06/16 02:15:06;;;;;;;11.38;9.25;;;;;;;18.29;84.27;100313.63;2069124;28;20104;-67
2021/06/16 02:16:21;;;;;;;11.32;9.57;;;;;;;18.25;84.22;100320.88;2068324;28;20560;-67
2021/06/16 02:17:23;;;;;;;15.30;9.23;;;;;;;18.27;84.14;100313.72;2072007;28;20024;-67
2021/06/16 02:18:30;;;;;;;11.27;9.98;;;;;;;18.27;84.34;100312.88;2072122;28;20488;-67
2021/06/16 02:19:33;;;;;;;12.82;9.45;;;;;;;18.28;84.21;100317.22;2070641;28;20061;-67
2021/06/16 02:20:33;;;;;;;13.30;9.50;;;;;;;18.28;84.07;100315.41;2063547;28;20073;-67
2021/06/16 02:21:34;;;;;;;11.23;9.18;;;;;;;18.27;84.05;100311.06;2062993;28;20168;-67
2021/06/16 02:22:36;;;;;;;11.50;9.02;;;;;;;18.29;83.93;100313.63;2071535;28;20374;-67
2021/06/16 02:23:36;;;;;;;;;;;;;;;18.27;83.90;100313.72;2072507;28;20052;-67
2021/06/16 02:24:37;;;;;;;12.65;9.75;;;;;;;18.25;84.14;100310.34;2071409;28;20357;-67
2021/06/16 02:25:38;;;;;;;11.02;9.10;;;;;;;18.20;84.65;100307.13;2073619;28;20032;-67
2021/06/16 02:26:39;;;;;;;12.93;9.80;;;;;;;18.17;84.36;100304.69;2073216;28;20037;-67
2021/06/16 02:27:40;;;;;;;11.25;9.55;;;;;;;18.18;84.31;100309.00;2080679;28;20112;-67
2021/06/16 02:28:41;;;;;;;12.03;9.43;;;;;;;18.15;84.37;100309.19;2080750;28;20044;-67
2021/06/16 02:29:42;;;;;;;10.35;9.05;;;;;;;18.17;84.64;100304.69;2080891;28;20037;-67
2021/06/16 02:30:42;;;;;;;12.50;9.47;;;;;;;18.15;84.39;100303.91;2073490;28;20029;-67
2021/06/16 02:31:43;;;;;;;12.03;9.33;;;;;;;18.15;84.57;100309.19;2073379;28;20080;-67
2021/06/16 02:32:44;;;;;;;10.00;9.00;;;;;;;18.16;84.33;100305.63;2073433;28;20026;-67
2021/06/16 02:33:48;;;;;;;15.38;8.95;;;;;;;18.14;84.54;100307.50;2073015;28;20100;-67
2021/06/16 02:34:48;;;;;;;10.60;9.32;;;;;;;18.11;84.64;100299.75;2073250;28;20026;-67
2021/06/16 02:35:49;;;;;;;12.57;9.33;;;;;;;18.13;84.65;100301.34;2073264;28;20026;-67
2021/06/16 02:36:52;;;;;;;13.85;9.55;;;;;;;18.13;84.72;100304.00;2073401;28;20065;-67
2021/06/16 02:38:00;;;;;;;14.13;9.57;;;;;;;18.13;84.51;100303.16;2072653;28;20045;-67
2021/06/16 02:39:12;;;;;;;15.48;9.55;;;;;;;18.11;85.00;100302.41;2065664;28;20030;-67
2021/06/16 02:40:14;;;;;;;;;;;;;;;18.09;84.82;100304.28;2073398;28;20064;-67
2021/06/16 02:41:15;;;;;;;;;;;;;;;18.09;84.79;100297.22;2069347;28;19916;-67
2021/06/16 02:42:16;;;;;;;11.23;9.32;;;;;;;18.07;84.91;100296.47;2072960;28;19909;-67
2021/06/16 02:43:18;;;;;;;11.57;9.48;;;;;;;18.08;84.64;100294.66;2073076;28;20393;-67
2021/06/16 02:44:19;;;;;;;14.20;9.48;;;;;;;18.06;85.08;100300.03;2073210;28;20025;-67
2021/06/16 02:45:22;;;;;;;11.52;9.77;;;;;;;18.04;85.46;100299.28;2073406;28;20021;-67
2021/06/16 02:46:24;;;;;;;10.95;9.77;;;;;;;18.01;85.31;100286.28;2072730;28;20170;-67
2021/06/16 02:47:26;;;;;;;16.55;10.20;;;;;;;17.98;85.38;100297.00;2073173;28;20487;-67
2021/06/16 02:48:26;;;;;;;;;;;;;;;17.97;85.77;100290.91;2074039;28;20041;-67
2021/06/16 02:49:35;;;;;;;10.57;9.48;;;;;;;17.96;85.66;100289.22;2073149;28;19917;-67
2021/06/16 02:50:36;;;;;;;13.18;9.80;;;;;;;17.97;85.97;100290.91;2073513;28;20486;-67
2021/06/16 02:51:39;;;;;;;12.32;9.38;;;;;;;17.96;85.71;100291.84;2073169;28;20026;-67
2021/06/16 02:52:42;;;;;;;16.90;10.07;;;;;;;17.95;86.11;100292.75;2073405;28;20025;-67
2021/06/16 02:53:44;;;;;;;13.10;10.05;;;;;;;17.92;86.05;100290.28;2072025;28;20108;-67
2021/06/16 02:54:49;;;;;;;11.68;9.93;;;;;;;17.94;86.11;100292.81;2070249;28;20034;-67
2021/06/16 02:55:52;;;;;;;13.95;9.88;;;;;;;17.90;85.91;100289.53;2070264;28;20493;-67
2021/06/16 02:56:53;;;;;;;11.85;9.55;;;;;;;17.92;86.27;100297.38;2074012;28;21350;-67
2021/06/16 02:57:56;;;;;;;12.52;10.15;;;;;;;17.91;85.98;100290.38;2072543;28;20076;-67
2021/06/16 02:58:57;;;;;;;13.15;10.35;;;;;;;17.86;86.61;100288.03;2072181;28;20397;-67
2021/06/16 02:59:59;;;;;;;11.27;10.00;;;;;;;17.89;86.49;100287.81;2073216;28;20609;-68
2021/06/16 03:01:02;;;;;;;11.85;9.93;;;;;;;17.80;86.74;100285.72;2073410;28;20394;-67
2021/06/16 03:02:03;;;;;;;12.18;10.00;;;;;;;17.83;87.00;100293.47;2072337;28;20390;-68
2021/06/16 03:03:06;;;;;;;12.43;9.88;;;;;;;17.81;86.42;100290.06;2072206;28;20021;-67
2021/06/16 03:04:08;;;;;;;11.85;10.00;;;;;;;17.81;86.54;100290.06;2071925;28;20124;-67
2021/06/16 03:05:11;;;;;;;11.35;9.98;;;;;;;17.80;86.19;100291.88;2072602;28;20030;-67
2021/06/16 03:06:12;;;;;;;11.95;10.40;;;;;;;17.77;86.78;100283.31;2069743;28;20080;-67
2021/06/16 03:07:14;;;;;;;14.02;10.50;;;;;;;17.72;86.76;100288.84;2066890;28;20026;-67
2021/06/16 03:08:15;;;;;;;14.43;10.38;;;;;;;17.68;86.94;100290.78;2073042;28;20030;-67
2021/06/16 03:09:18;;;;;;;11.75;10.00;;;;;;;17.67;86.72;100289.13;2073397;28;20057;-67
2021/06/16 03:10:20;;;;;;;13.93;10.18;;;;;;;17.65;87.09;100291.00;2073001;28;20505;-67
2021/06/16 03:11:21;;;;;;;11.38;10.15;;;;;;;17.65;87.33;100288.34;2072977;28;20038;-67
2021/06/16 03:12:23;;;;;;;13.82;9.85;;;;;;;17.66;87.29;100289.19;2072463;28;20397;-67
2021/06/16 03:13:25;;;;;;;13.52;10.00;;;;;;;17.60;87.54;100281.66;2073077;28;20053;-67
2021/06/16 03:14:26;;;;;;;16.27;10.13;;;;;;;17.57;87.20;100280.88;2072801;28;20030;-67
2021/06/16 03:15:27;;;;;;;13.80;10.90;;;;;;;17.55;87.22;100282.75;2073084;28;20117;-67
2021/06/16 03:16:28;;;;;;;12.50;9.80;;;;;;;17.54;87.44;100282.84;2072167;28;20049;-67
2021/06/16 03:17:28;;;;;;;13.02;11.07;;;;;;;17.52;87.99;100284.72;2080459;28;20489;-67
2021/06/16 03:18:29;;;;;;;12.03;10.07;;;;;;;17.52;88.10;100277.69;2080226;28;20029;-67
2021/06/16 03:19:29;;;;;;;10.90;9.80;;;;;;;17.52;87.82;100279.44;2072683;28;20022;-67
2021/06/16 03:20:32;;;;;;;13.43;10.67;;;;;;;17.53;87.78;100284.66;2072160;28;20110;-67
2021/06/16 03:21:34;;;;;;;12.65;10.55;;;;;;;17.55;88.23;100284.56;2072787;28;20038;-67
2021/06/16 03:22:35;;;;;;;14.43;10.57;;;;;;;17.56;88.02;100286.25;2073205;28;20017;-67
2021/06/16 03:23:35;;;;;;;11.07;9.98;;;;;;;17.55;88.62;100284.56;2073291;28;20017;-67
2021/06/16 03:24:38;;;;;;;16.30;10.90;;;;;;;17.53;88.55;100278.53;2073188;28;20108;-67
2021/06/16 03:25:38;;;;;;;13.15;10.65;;;;;;;17.54;88.21;100288.13;2070319;28;20041;-67
2021/06/16 03:26:40;;;;;;;12.98;10.43;;;;;;;17.54;88.29;100288.97;2069361;28;20052;-67
2021/06/16 03:27:40;;;;;;;;;;;;;;;17.52;87.88;100287.34;2073475;28;20038;-67
2021/06/16 03:28:42;;;;;;;13.98;10.70;;;;;;;17.54;87.94;100288.13;2073032;28;19909;-67
2021/06/16 03:29:42;;;;;;;14.10;10.98;;;;;;;17.54;88.09;100290.75;2073256;28;20402;-67
2021/06/16 03:30:43;;;;;;;13.40;10.57;;;;;;;17.52;88.23;100280.31;2072716;28;20042;-67
2021/06/16 03:31:46;;;;;;;12.27;10.95;;;;;;;17.55;88.44;100292.47;2080312;28;20037;-67
2021/06/16 03:32:48;;;;;;;13.18;10.50;;;;;;;17.60;88.18;100285.13;2080393;28;20589;-67
2021/06/16 03:33:49;;;;;;;12.35;10.63;;;;;;;17.61;88.37;100284.19;2073217;28;20030;-67
2021/06/16 03:34:50;;;;;;;12.82;10.63;;;;;;;17.67;88.11;100296.16;2080507;28;20104;-67
2021/06/16 03:35:51;;;;;;;11.75;10.50;;;;;;;17.66;88.11;100291.81;2080318;28;20032;-67
2021/06/16 03:36:53;;;;;;;15.02;10.05;;;;;;;17.66;88.10;100287.41;2073242;28;20045;-67
2021/06/16 03:37:55;;;;;;;11.80;10.60;;;;;;;17.68;87.65;100290.78;2073414;28;20053;-67
2021/06/16 03:38:56;;;;;;;14.23;10.65;;;;;;;17.67;87.69;100294.38;2072736;28;20100;-67
2021/06/16 03:39:57;;;;;;;15.93;10.70;;;;;;;17.70;87.26;100288.09;2073046;28;20033;-67
2021/06/16 03:40:59;;;;;;;11.77;10.27;;;;;;;17.74;87.33;100290.44;2080054;28;20061;-67
2021/06/16 03:42:02;;;;;;;12.65;11.30;;;;;;;17.73;87.65;100288.75;2080014;28;20029;-67
2021/06/16 03:43:03;;;;;;;11.32;10.13;;;;;;;17.77;87.10;100288.56;2072424;28;20026;-67
2021/06/16 03:44:05;;;;;;;14.95;10.50;;;;;;;17.71;87.45;100290.63;2073115;28;20433;-67
2021/06/16 03:45:07;;;;;;;14.15;10.80;;;;;;;17.80;87.00;100293.63;2072950;28;20049;-67
2021/06/16 03:46:08;;;;;;;13.85;10.77;;;;;;;17.82;87.03;100283.88;2072660;28;20048;-66
2021/06/16 03:47:11;;;;;;;12.98;10.80;;;;;;;17.85;86.58;100281.88;2072600;28;20025;-66
2021/06/16 03:48:15;;;;;;;12.13;10.23;;;;;;;17.92;86.25;100287.66;2072586;28;20031;-66
2021/06/16 03:49:18;;;;;;;12.25;10.27;;;;;;;17.95;86.11;100282.19;2072790;28;20053;-67
2021/06/16 03:50:21;;;;;;;11.68;10.48;;;;;;;17.98;85.95;100286.47;2073085;28;20042;-67
2021/06/16 03:51:21;;;;;;;12.07;10.40;;;;;;;17.95;85.99;100286.59;2072620;28;20363;-67
2021/06/16 03:52:22;;;;;;;13.38;10.23;;;;;;;18.02;85.53;100282.72;2079994;28;20029;-67
2021/06/16 03:53:23;;;;;;;16.60;11.15;;;;;;;18.08;85.61;100287.63;2080378;28;20076;-67
2021/06/16 03:54:27;;;;;;;11.55;10.18;;;;;;;18.11;85.69;100290.06;2073046;28;20022;-67
2021/06/16 03:55:29;;;;;;;11.25;10.07;;;;;;;18.12;85.16;100288.28;2072440;28;20034;-67
2021/06/16 03:56:29;;;;;;;14.32;10.68;;;;;;;18.15;85.11;100290.72;2073063;28;20018;-67
2021/06/16 03:57:31;;;;;;;11.13;9.93;;;;;;;18.17;85.20;100284.41;2072360;28;20033;-67
2021/06/16 03:58:33;;;;;;;12.02;10.45;;;;;;;18.23;85.03;100292.88;2073033;28;20399;-67
2021/06/16 03:59:35;;;;;;;16.67;10.70;;;;;;;18.24;84.71;100290.19;2072933;28;20030;-67
2021/06/16 04:00:38;;;;;;;16.02;10.23;;;;;;;18.27;84.31;100287.31;2075806;28;20026;-67
2021/06/16 04:01:39;;;;;;;11.38;10.15;;;;;;;18.28;84.70;100290.84;2077596;28;20580;-67
2021/06/16 04:02:40;;;;;;;;;;;;;;;18.39;84.53;100284.88;2072024;28;20084;-67
2021/06/16 04:03:41;;;;;;;10.65;9.60;;;;;;;18.43;83.80;100286.41;2072564;28;19909;-67
2021/06/16 04:04:42;;;;;;;;;;;;;;;18.49;83.76;100291.28;2072001;28;20026;-67
2021/06/16 04:05:43;;;;;;;13.60;9.95;;;;;;;18.56;83.24;100287.34;2070652;28;20356;-67
2021/06/16 04:06:45;;;;;;;11.82;9.90;;;;;;;18.62;83.34;100288.72;2076741;28;20476;-67
2021/06/16 04:07:50;;;;;;;14.63;9.80;;;;;;;18.65;83.04;100285.91;2072614;28;20496;-67
2021/06/16 04:08:51;;;;;;;10.68;9.57;;;;;;;18.67;83.19;100297.22;2072200;28;20029;-67
2021/06/16 04:09:53;;;;;;;12.77;10.20;;;;;;;18.75;82.38;100289.66;2071645;28;20057;-67
2021/06/16 04:10:54;;;;;;;12.80;10.00;;;;;;;18.84;82.12;100290.88;2072092;28;20048;-67
2021/06/16 04:11:55;;;;;;;13.23;9.85;;;;;;;18.83;81.70;100297.94;2072285;28;20104;-67
2021/06/16 04:12:55;;;;;;;10.83;9.60;;;;;;;18.85;81.56;100292.59;2072247;28;20034;-67
2021/06/16 04:13:56;;;;;;;16.30;9.90;;;;;;;18.96;81.10;100284.81;2072704;28;20080;-67
2021/06/16 04:14:57;;;;;;;;;;;;;;;18.87;81.50;100287.19;2073194;28;20025;-67
2021/06/16 04:15:58;;;;;;;11.75;9.93;;;;;;;18.96;81.18;100284.81;2072481;28;19928;-67
2021/06/16 04:16:59;;;;;;;12.88;10.00;;;;;;;18.96;80.88;100289.28;2072707;28;20549;-67
2021/06/16 04:17:59;;;;;;;11.93;10.13;;;;;;;18.98;81.08;100285.59;2072917;28;20026;-67
2021/06/16 04:19:00;;;;;;;12.73;9.63;;;;;;;19.17;80.72;100287.03;2072448;28;20478;-67
2021/06/16 04:20:00;;;;;;;14.97;9.17;;;;;;;19.26;79.79;100283.78;2072869;28;20026;-67
2021/06/16 04:21:01;;;;;;;11.60;9.48;;;;;;;19.32;79.47;100277.25;2072699;28;20322;-67
2021/06/16 04:22:02;;;;;;;13.02;9.63;;;;;;;19.41;78.93;100275.81;2072133;28;20029;-67
2021/06/16 04:23:03;;;;;;;;;;;;;;;19.48;78.47;100282.38;2072960;28;20038;-67
2021/06/16 04:24:03;;;;;;;10.25;9.18;;;;;;;19.52;77.86;100278.59;2072721;28;19913;-67
2021/06/16 04:25:05;;;;;;;13.00;9.38;;;;;;;19.51;77.93;100278.69;2072386;28;20017;-66
2021/06/16 04:26:05;;;;;;;;;;;;;;;19.61;77.74;100277.13;2072470;28;20034;-66
2021/06/16 04:27:06;;;;;;;12.98;8.80;;;;;;;19.68;77.16;100283.69;2072506;28;20254;-66
2021/06/16 04:28:06;;;;;;;12.95;9.23;;;;;;;19.67;77.27;100281.16;2072305;28;20493;-66
2021/06/16 04:29:06;;;;;;;10.07;9.03;;;;;;;19.77;77.40;100271.63;2072405;28;20070;-73
2021/06/16 04:30:10;;;;;;;11.30;8.87;;;;;;;19.83;76.57;100273.88;2072275;28;20518;-73
2021/06/16 04:31:11;;;;;;;13.68;9.05;;;;;;;19.82;76.93;100279.25;2064430;28;20104;-73
2021/06/16 04:32:12;;;;;;;11.15;9.20;;;;;;;19.87;76.71;100275.38;2070919;28;20066;-73
2021/06/16 04:33:12;;;;;;;13.93;9.43;;;;;;;19.94;76.22;100282.88;2071712;28;20038;-73
2021/06/16 04:34:12;;;;;;;11.73;8.83;;;;;;;19.84;76.40;100283.50;2071903;28;20124;-73
2021/06/16 04:35:13;;;;;;;14.87;9.77;;;;;;;19.92;75.95;100276.88;2072538;28;20120;-73
2021/06/16 04:36:13;;;;;;;13.88;9.85;;;;;;;19.96;75.30;100276.56;2072280;28;20110;-73
2021/06/16 04:37:13;;;;;;;15.27;9.37;;;;;;;20.00;75.44;100278.03;2072484;28;20080;-73
2021/06/16 04:38:14;;;;;;;14.87;9.13;;;;;;;19.90;75.65;100277.84;2072633;28;20053;-73
2021/06/16 04:39:15;;;;;;;10.77;9.27;;;;;;;20.03;75.45;100274.34;2072150;28;20049;-73
2021/06/16 04:40:16;;;;;;;10.70;9.48;;;;;;;20.12;75.06;100268.44;2072665;28;20033;-73
2021/06/16 04:41:16;;;;;;;12.05;9.13;;;;;;;20.21;75.06;100272.22;2072428;28;20026;-73
2021/06/16 04:42:17;;;;;;;11.50;8.90;;;;;;;20.29;74.86;100276.97;2072077;28;20034;-73
2021/06/16 04:43:17;;;;;;;12.65;9.30;;;;;;;20.33;74.52;100271.38;2072052;28;20496;-73
2021/06/16 04:44:17;;;;;;;10.63;8.93;;;;;;;20.40;73.88;100273.56;2072598;28;20037;-73
2021/06/16 04:45:17;;;;;;;9.87;8.87;;;;;;;20.43;73.86;100274.19;2072646;28;20026;-73
2021/06/16 04:46:18;;;;;;;13.73;9.00;;;;;;;20.58;73.11;100274.06;2071475;28;20030;-73
2021/06/16 04:47:18;;;;;;;15.53;9.37;;;;;;;20.55;72.70;100271.63;2072323;28;20032;-73